sensor_id;sensor_type;location;lat;lon;timestamp;temperature;humidity
18177;DHT22;9213;50.858;3.964;2022-08-04T00:02:20;28.50;44.60
18177;DHT22;9213;50.858;3.964;2022-08-04T00:04:54;28.50;44.60
18177;DHT22;9213;50.858;3.964;2022-08-04T00:07:31;28.40;44.60
18177;DHT22;9213;50.858;3.964;2022-08-04T00:10:02;28.30;44.90
18177;DHT22;9213;50.858;3.964;2022-08-04T00:12:31;28.30;45.00
18177;DHT22;9213;50.858;3.964;2022-08-04T00:15:00;28.30;45.20
18177;DHT22;9213;50.858;3.964;2022-08-04T00:17:31;28.20;45.30
18177;DHT22;9213;50.858;3.964;2022-08-04T00:20:00;28.20;45.50
18177;DHT22;9213;50.858;3.964;2022-08-04T00:22:30;28.10;45.60
18177;DHT22;9213;50.858;3.964;2022-08-04T00:24:59;28.10;45.80
18177;DHT22;9213;50.858;3.964;2022-08-04T00:27:28;28.10;45.80
18177;DHT22;9213;50.858;3.964;2022-08-04T00:29:56;28.00;45.90
18177;DHT22;9213;50.858;3.964;2022-08-04T00:32:23;28.00;45.90
18177;DHT22;9213;50.858;3.964;2022-08-04T00:34:54;28.00;46.10
18177;DHT22;9213;50.858;3.964;2022-08-04T00:37:21;27.90;45.60
18177;DHT22;9213;50.858;3.964;2022-08-04T00:39:50;27.80;45.70
18177;DHT22;9213;50.858;3.964;2022-08-04T00:42:31;27.80;45.90
18177;DHT22;9213;50.858;3.964;2022-08-04T00:45:14;27.80;46.00
18177;DHT22;9213;50.858;3.964;2022-08-04T00:47:56;27.70;46.20
18177;DHT22;9213;50.858;3.964;2022-08-04T00:50:37;27.70;46.30
18177;DHT22;9213;50.858;3.964;2022-08-04T00:53:13;27.60;46.60
18177;DHT22;9213;50.858;3.964;2022-08-04T00:56:02;27.50;46.80
18177;DHT22;9213;50.858;3.964;2022-08-04T00:58:42;27.50;46.60
18177;DHT22;9213;50.858;3.964;2022-08-04T01:01:20;27.50;46.70
18177;DHT22;9213;50.858;3.964;2022-08-04T01:04:00;27.40;47.00
18177;DHT22;9213;50.858;3.964;2022-08-04T01:06:35;27.40;47.10
18177;DHT22;9213;50.858;3.964;2022-08-04T01:09:15;27.40;47.20
18177;DHT22;9213;50.858;3.964;2022-08-04T01:11:59;27.30;47.40
18177;DHT22;9213;50.858;3.964;2022-08-04T01:14:51;27.30;47.40
18177;DHT22;9213;50.858;3.964;2022-08-04T01:17:24;27.30;47.30
18177;DHT22;9213;50.858;3.964;2022-08-04T01:19:59;27.10;47.60
18177;DHT22;9213;50.858;3.964;2022-08-04T01:22:53;27.10;47.60
18177;DHT22;9213;50.858;3.964;2022-08-04T01:28:29;27.00;47.90
18177;DHT22;9213;50.858;3.964;2022-08-04T01:31:20;27.00;47.90
18177;DHT22;9213;50.858;3.964;2022-08-04T01:33:53;27.00;47.80
18177;DHT22;9213;50.858;3.964;2022-08-04T01:36:24;26.90;47.50
18177;DHT22;9213;50.858;3.964;2022-08-04T01:38:52;26.80;47.70
18177;DHT22;9213;50.858;3.964;2022-08-04T01:41:20;26.70;47.70
18177;DHT22;9213;50.858;3.964;2022-08-04T01:43:48;26.70;47.60
18177;DHT22;9213;50.858;3.964;2022-08-04T01:46:18;26.60;47.50
18177;DHT22;9213;50.858;3.964;2022-08-04T01:48:46;26.60;47.70
18177;DHT22;9213;50.858;3.964;2022-08-04T01:51:21;26.50;47.70
18177;DHT22;9213;50.858;3.964;2022-08-04T01:53:50;26.50;47.60
18177;DHT22;9213;50.858;3.964;2022-08-04T01:56:18;26.50;47.60
18177;DHT22;9213;50.858;3.964;2022-08-04T01:58:46;26.40;47.70
18177;DHT22;9213;50.858;3.964;2022-08-04T02:01:13;26.40;47.70
18177;DHT22;9213;50.858;3.964;2022-08-04T02:03:44;26.40;47.80
18177;DHT22;9213;50.858;3.964;2022-08-04T02:06:20;26.30;47.80
18177;DHT22;9213;50.858;3.964;2022-08-04T02:08:52;26.30;47.80
18177;DHT22;9213;50.858;3.964;2022-08-04T02:11:23;26.20;47.80
18177;DHT22;9213;50.858;3.964;2022-08-04T02:13:56;26.20;47.80
18177;DHT22;9213;50.858;3.964;2022-08-04T02:16:29;26.10;47.90
18177;DHT22;9213;50.858;3.964;2022-08-04T02:19:07;26.10;48.00
18177;DHT22;9213;50.858;3.964;2022-08-04T02:21:39;26.10;48.00
18177;DHT22;9213;50.858;3.964;2022-08-04T02:24:11;26.00;48.10
18177;DHT22;9213;50.858;3.964;2022-08-04T02:26:41;26.00;48.10
18177;DHT22;9213;50.858;3.964;2022-08-04T02:29:15;26.00;48.10
18177;DHT22;9213;50.858;3.964;2022-08-04T02:31:47;26.00;48.20
18177;DHT22;9213;50.858;3.964;2022-08-04T02:34:24;25.90;47.70
18177;DHT22;9213;50.858;3.964;2022-08-04T02:36:53;25.90;47.70
18177;DHT22;9213;50.858;3.964;2022-08-04T02:39:21;25.80;47.70
18177;DHT22;9213;50.858;3.964;2022-08-04T02:41:49;25.80;47.70
18177;DHT22;9213;50.858;3.964;2022-08-04T02:44:20;25.80;47.80
18177;DHT22;9213;50.858;3.964;2022-08-04T02:46:50;25.80;47.80
18177;DHT22;9213;50.858;3.964;2022-08-04T02:49:20;25.80;47.70
18177;DHT22;9213;50.858;3.964;2022-08-04T02:51:51;25.80;47.70
18177;DHT22;9213;50.858;3.964;2022-08-04T02:54:22;25.70;47.80
18177;DHT22;9213;50.858;3.964;2022-08-04T02:56:50;25.70;47.70
18177;DHT22;9213;50.858;3.964;2022-08-04T02:59:20;25.70;47.60
18177;DHT22;9213;50.858;3.964;2022-08-04T03:01:49;25.70;47.70
18177;DHT22;9213;50.858;3.964;2022-08-04T03:04:34;25.70;47.40
18177;DHT22;9213;50.858;3.964;2022-08-04T03:07:33;25.80;47.50
18177;DHT22;9213;50.858;3.964;2022-08-04T03:13:37;25.80;47.30
18177;DHT22;9213;50.858;3.964;2022-08-04T03:16:22;25.80;47.20
18177;DHT22;9213;50.858;3.964;2022-08-04T03:19:30;25.70;47.20
18177;DHT22;9213;50.858;3.964;2022-08-04T03:22:22;25.70;47.20
18177;DHT22;9213;50.858;3.964;2022-08-04T03:25:23;25.60;47.20
18177;DHT22;9213;50.858;3.964;2022-08-04T03:34:33;25.40;47.60
18177;DHT22;9213;50.858;3.964;2022-08-04T03:37:18;25.30;48.00
18177;DHT22;9213;50.858;3.964;2022-08-04T03:43:22;25.30;47.90
18177;DHT22;9213;50.858;3.964;2022-08-04T03:59:14;25.10;48.30
18177;DHT22;9213;50.858;3.964;2022-08-04T04:02:09;25.00;48.50
18177;DHT22;9213;50.858;3.964;2022-08-04T04:05:03;25.00;48.70
18177;DHT22;9213;50.858;3.964;2022-08-04T04:07:58;25.00;48.70
18177;DHT22;9213;50.858;3.964;2022-08-04T04:14:04;25.00;48.70
18177;DHT22;9213;50.858;3.964;2022-08-04T04:16:54;24.90;49.00
18177;DHT22;9213;50.858;3.964;2022-08-04T04:25:34;24.90;49.20
18177;DHT22;9213;50.858;3.964;2022-08-04T04:28:27;24.90;49.20
18177;DHT22;9213;50.858;3.964;2022-08-04T04:31:02;24.90;49.30
18177;DHT22;9213;50.858;3.964;2022-08-04T04:33:47;24.90;49.40
18177;DHT22;9213;50.858;3.964;2022-08-04T04:36:22;24.80;49.30
18177;DHT22;9213;50.858;3.964;2022-08-04T04:39:00;24.80;49.50
18177;DHT22;9213;50.858;3.964;2022-08-04T04:44:54;24.90;49.50
18177;DHT22;9213;50.858;3.964;2022-08-04T04:47:32;24.90;49.30
18177;DHT22;9213;50.858;3.964;2022-08-04T04:50:09;24.80;49.50
18177;DHT22;9213;50.858;3.964;2022-08-04T04:52:41;24.80;49.80
18177;DHT22;9213;50.858;3.964;2022-08-04T04:55:16;24.80;49.80
18177;DHT22;9213;50.858;3.964;2022-08-04T04:57:48;24.80;49.90
18177;DHT22;9213;50.858;3.964;2022-08-04T05:00:16;24.90;50.00
18177;DHT22;9213;50.858;3.964;2022-08-04T05:03:13;24.90;50.00
18177;DHT22;9213;50.858;3.964;2022-08-04T05:05:58;25.00;49.80
18177;DHT22;9213;50.858;3.964;2022-08-04T05:08:48;25.00;49.60
18177;DHT22;9213;50.858;3.964;2022-08-04T05:11:29;25.10;49.50
18177;DHT22;9213;50.858;3.964;2022-08-04T05:14:06;25.10;49.50
18177;DHT22;9213;50.858;3.964;2022-08-04T05:16:38;25.10;49.60
18177;DHT22;9213;50.858;3.964;2022-08-04T05:19:16;25.10;49.70
18177;DHT22;9213;50.858;3.964;2022-08-04T05:21:47;25.10;49.70
18177;DHT22;9213;50.858;3.964;2022-08-04T05:24:18;25.10;49.50
18177;DHT22;9213;50.858;3.964;2022-08-04T05:26:49;25.10;49.60
18177;DHT22;9213;50.858;3.964;2022-08-04T05:29:26;25.10;49.80
18177;DHT22;9213;50.858;3.964;2022-08-04T05:31:54;25.10;49.70
18177;DHT22;9213;50.858;3.964;2022-08-04T05:34:25;25.10;49.70
18177;DHT22;9213;50.858;3.964;2022-08-04T05:36:56;25.20;49.70
18177;DHT22;9213;50.858;3.964;2022-08-04T05:39:27;25.20;49.60
18177;DHT22;9213;50.858;3.964;2022-08-04T05:41:56;25.30;49.50
18177;DHT22;9213;50.858;3.964;2022-08-04T05:44:27;25.30;49.50
18177;DHT22;9213;50.858;3.964;2022-08-04T05:46:55;25.50;49.40
18177;DHT22;9213;50.858;3.964;2022-08-04T05:49:24;25.50;49.20
18177;DHT22;9213;50.858;3.964;2022-08-04T05:51:56;25.70;49.00
18177;DHT22;9213;50.858;3.964;2022-08-04T05:54:24;25.80;48.80
18177;DHT22;9213;50.858;3.964;2022-08-04T05:56:52;25.90;48.60
18177;DHT22;9213;50.858;3.964;2022-08-04T05:59:21;26.00;48.90
18177;DHT22;9213;50.858;3.964;2022-08-04T06:01:54;26.10;48.60
18177;DHT22;9213;50.858;3.964;2022-08-04T06:04:22;26.20;48.40
18177;DHT22;9213;50.858;3.964;2022-08-04T06:06:51;26.30;48.10
18177;DHT22;9213;50.858;3.964;2022-08-04T06:09:18;26.30;47.90
18177;DHT22;9213;50.858;3.964;2022-08-04T06:11:45;26.40;47.80
18177;DHT22;9213;50.858;3.964;2022-08-04T06:14:13;26.40;47.90
18177;DHT22;9213;50.858;3.964;2022-08-04T06:16:43;26.40;48.00
18177;DHT22;9213;50.858;3.964;2022-08-04T06:19:13;26.50;47.80
18177;DHT22;9213;50.858;3.964;2022-08-04T06:21:44;26.60;47.80
18177;DHT22;9213;50.858;3.964;2022-08-04T06:24:16;26.70;47.50
18177;DHT22;9213;50.858;3.964;2022-08-04T06:26:46;26.80;47.20
18177;DHT22;9213;50.858;3.964;2022-08-04T06:29:16;26.80;47.10
18177;DHT22;9213;50.858;3.964;2022-08-04T06:31:49;26.80;47.00
18177;DHT22;9213;50.858;3.964;2022-08-04T06:34:25;26.90;46.90
18177;DHT22;9213;50.858;3.964;2022-08-04T06:36:53;27.10;47.30
18177;DHT22;9213;50.858;3.964;2022-08-04T06:39:21;27.20;47.00
18177;DHT22;9213;50.858;3.964;2022-08-04T06:41:51;27.30;46.80
18177;DHT22;9213;50.858;3.964;2022-08-04T06:44:18;27.60;46.50
18177;DHT22;9213;50.858;3.964;2022-08-04T06:46:46;27.70;46.10
18177;DHT22;9213;50.858;3.964;2022-08-04T06:49:14;27.80;45.60
18177;DHT22;9213;50.858;3.964;2022-08-04T06:51:44;27.90;45.40
18177;DHT22;9213;50.858;3.964;2022-08-04T06:54:12;28.00;45.60
18177;DHT22;9213;50.858;3.964;2022-08-04T06:56:39;28.10;45.50
18177;DHT22;9213;50.858;3.964;2022-08-04T06:59:10;28.20;45.10
18177;DHT22;9213;50.858;3.964;2022-08-04T07:01:38;28.40;44.50
18177;DHT22;9213;50.858;3.964;2022-08-04T07:04:06;28.60;44.40
18177;DHT22;9213;50.858;3.964;2022-08-04T07:06:33;28.60;44.20
18177;DHT22;9213;50.858;3.964;2022-08-04T07:09:01;28.50;44.40
18177;DHT22;9213;50.858;3.964;2022-08-04T07:11:29;28.40;44.50
18177;DHT22;9213;50.858;3.964;2022-08-04T07:13:59;28.30;45.10
18177;DHT22;9213;50.858;3.964;2022-08-04T07:16:27;28.20;45.60
18177;DHT22;9213;50.858;3.964;2022-08-04T07:18:54;28.00;46.80
18177;DHT22;9213;50.858;3.964;2022-08-04T07:21:22;27.90;46.00
18177;DHT22;9213;50.858;3.964;2022-08-04T07:23:49;27.80;46.50
18177;DHT22;9213;50.858;3.964;2022-08-04T07:26:18;27.60;46.80
18177;DHT22;9213;50.858;3.964;2022-08-04T07:28:45;27.50;47.40
18177;DHT22;9213;50.858;3.964;2022-08-04T07:31:15;27.30;47.80
18177;DHT22;9213;50.858;3.964;2022-08-04T07:33:43;27.30;48.30
18177;DHT22;9213;50.858;3.964;2022-08-04T07:36:11;27.20;48.60
18177;DHT22;9213;50.858;3.964;2022-08-04T07:38:39;27.10;48.90
18177;DHT22;9213;50.858;3.964;2022-08-04T07:41:07;27.00;49.40
18177;DHT22;9213;50.858;3.964;2022-08-04T07:43:37;27.00;49.50
18177;DHT22;9213;50.858;3.964;2022-08-04T07:46:04;26.90;49.20
18177;DHT22;9213;50.858;3.964;2022-08-04T07:48:31;26.90;49.30
18177;DHT22;9213;50.858;3.964;2022-08-04T07:50:58;26.90;49.60
18177;DHT22;9213;50.858;3.964;2022-08-04T07:53:26;26.90;49.60
18177;DHT22;9213;50.858;3.964;2022-08-04T07:55:53;26.90;49.70
18177;DHT22;9213;50.858;3.964;2022-08-04T07:58:21;26.80;49.90
18177;DHT22;9213;50.858;3.964;2022-08-04T08:00:49;26.70;50.40
18177;DHT22;9213;50.858;3.964;2022-08-04T08:03:18;26.70;51.40
18177;DHT22;9213;50.858;3.964;2022-08-04T08:05:45;26.60;51.20
18177;DHT22;9213;50.858;3.964;2022-08-04T08:08:12;26.60;51.80
18177;DHT22;9213;50.858;3.964;2022-08-04T08:10:45;26.40;52.40
18177;DHT22;9213;50.858;3.964;2022-08-04T08:13:13;26.40;53.10
18177;DHT22;9213;50.858;3.964;2022-08-04T08:15:42;26.30;53.40
18177;DHT22;9213;50.858;3.964;2022-08-04T08:18:11;26.20;53.50
18177;DHT22;9213;50.858;3.964;2022-08-04T08:20:38;26.00;53.90
18177;DHT22;9213;50.858;3.964;2022-08-04T08:23:07;26.00;55.30
18177;DHT22;9213;50.858;3.964;2022-08-04T08:25:34;25.90;54.30
18177;DHT22;9213;50.858;3.964;2022-08-04T08:28:03;25.90;54.80
18177;DHT22;9213;50.858;3.964;2022-08-04T08:30:31;25.80;55.80
18177;DHT22;9213;50.858;3.964;2022-08-04T08:33:00;25.70;56.30
18177;DHT22;9213;50.858;3.964;2022-08-04T08:35:45;25.70;56.60
18177;DHT22;9213;50.858;3.964;2022-08-04T08:38:14;25.70;56.70
18177;DHT22;9213;50.858;3.964;2022-08-04T08:40:49;25.70;56.70
18177;DHT22;9213;50.858;3.964;2022-08-04T08:43:35;25.70;56.20
18177;DHT22;9213;50.858;3.964;2022-08-04T08:49:29;25.70;55.60
18177;DHT22;9213;50.858;3.964;2022-08-04T08:52:20;25.70;55.70
18177;DHT22;9213;50.858;3.964;2022-08-04T08:55:23;25.70;56.00
18177;DHT22;9213;50.858;3.964;2022-08-04T08:58:07;25.60;55.90
18177;DHT22;9213;50.858;3.964;2022-08-04T09:00:44;25.60;56.30
18177;DHT22;9213;50.858;3.964;2022-08-04T09:06:31;25.60;56.70
18177;DHT22;9213;50.858;3.964;2022-08-04T09:12:05;25.60;57.10
18177;DHT22;9213;50.858;3.964;2022-08-04T09:14:39;25.70;57.00
18177;DHT22;9213;50.858;3.964;2022-08-04T09:17:17;25.70;56.60
18177;DHT22;9213;50.858;3.964;2022-08-04T09:19:51;25.70;57.20
18177;DHT22;9213;50.858;3.964;2022-08-04T09:22:27;25.80;57.50
18177;DHT22;9213;50.858;3.964;2022-08-04T09:25:01;25.80;57.10
18177;DHT22;9213;50.858;3.964;2022-08-04T09:27:37;25.90;56.70
18177;DHT22;9213;50.858;3.964;2022-08-04T09:30:07;25.90;56.80
18177;DHT22;9213;50.858;3.964;2022-08-04T09:32:43;26.00;57.00
18177;DHT22;9213;50.858;3.964;2022-08-04T09:35:18;26.10;57.10
18177;DHT22;9213;50.858;3.964;2022-08-04T09:37:59;26.10;57.10
18177;DHT22;9213;50.858;3.964;2022-08-04T09:40:36;26.20;56.80
18177;DHT22;9213;50.858;3.964;2022-08-04T09:43:16;26.30;56.20
18177;DHT22;9213;50.858;3.964;2022-08-04T09:45:53;26.30;56.20
18177;DHT22;9213;50.858;3.964;2022-08-04T09:48:30;26.40;55.80
18177;DHT22;9213;50.858;3.964;2022-08-04T09:51:02;26.40;55.80
18177;DHT22;9213;50.858;3.964;2022-08-04T09:53:44;26.60;56.60
18177;DHT22;9213;50.858;3.964;2022-08-04T09:56:23;27.10;56.10
18177;DHT22;9213;50.858;3.964;2022-08-04T09:59:00;27.70;53.80
18177;DHT22;9213;50.858;3.964;2022-08-04T10:01:32;28.20;52.60
18177;DHT22;9213;50.858;3.964;2022-08-04T10:04:03;28.70;51.00
18177;DHT22;9213;50.858;3.964;2022-08-04T10:06:47;29.20;49.60
18177;DHT22;9213;50.858;3.964;2022-08-04T10:09:32;29.70;48.10
18177;DHT22;9213;50.858;3.964;2022-08-04T10:12:11;30.30;47.80
18177;DHT22;9213;50.858;3.964;2022-08-04T10:14:50;30.80;46.40
18177;DHT22;9213;50.858;3.964;2022-08-04T10:17:30;31.30;43.80
18177;DHT22;9213;50.858;3.964;2022-08-04T10:20:07;31.80;43.30
18177;DHT22;9213;50.858;3.964;2022-08-04T10:22:41;32.20;41.30
18177;DHT22;9213;50.858;3.964;2022-08-04T10:25:23;32.60;39.80
18177;DHT22;9213;50.858;3.964;2022-08-04T10:27:56;32.80;38.50
18177;DHT22;9213;50.858;3.964;2022-08-04T10:30:25;33.00;38.40
18177;DHT22;9213;50.858;3.964;2022-08-04T10:33:01;33.20;38.30
18177;DHT22;9213;50.858;3.964;2022-08-04T10:35:34;33.50;38.00
18177;DHT22;9213;50.858;3.964;2022-08-04T10:38:09;33.60;37.60
18177;DHT22;9213;50.858;3.964;2022-08-04T10:40:40;33.60;37.10
18177;DHT22;9213;50.858;3.964;2022-08-04T10:43:23;33.50;36.70
18177;DHT22;9213;50.858;3.964;2022-08-04T10:45:57;33.40;37.40
18177;DHT22;9213;50.858;3.964;2022-08-04T10:48:34;33.10;37.60
18177;DHT22;9213;50.858;3.964;2022-08-04T10:51:09;32.80;37.80
18177;DHT22;9213;50.858;3.964;2022-08-04T10:53:38;32.50;38.80
18177;DHT22;9213;50.858;3.964;2022-08-04T10:56:10;32.40;39.00
18177;DHT22;9213;50.858;3.964;2022-08-04T10:58:45;32.30;38.90
18177;DHT22;9213;50.858;3.964;2022-08-04T11:01:21;32.40;38.80
18177;DHT22;9213;50.858;3.964;2022-08-04T11:03:55;32.60;38.80
18177;DHT22;9213;50.858;3.964;2022-08-04T11:06:23;33.00;38.50
18177;DHT22;9213;50.858;3.964;2022-08-04T11:08:53;33.40;38.00
18177;DHT22;9213;50.858;3.964;2022-08-04T11:11:25;33.90;36.90
18177;DHT22;9213;50.858;3.964;2022-08-04T11:14:01;34.30;36.10
18177;DHT22;9213;50.858;3.964;2022-08-04T11:16:34;34.70;35.00
18177;DHT22;9213;50.858;3.964;2022-08-04T11:19:09;35.10;34.70
18177;DHT22;9213;50.858;3.964;2022-08-04T11:21:43;35.30;34.10
18177;DHT22;9213;50.858;3.964;2022-08-04T11:24:16;35.50;33.50
18177;DHT22;9213;50.858;3.964;2022-08-04T11:26:48;35.60;32.90
18177;DHT22;9213;50.858;3.964;2022-08-04T11:29:24;35.70;32.80
18177;DHT22;9213;50.858;3.964;2022-08-04T11:31:53;35.80;33.00
18177;DHT22;9213;50.858;3.964;2022-08-04T11:34:24;35.70;32.60
18177;DHT22;9213;50.858;3.964;2022-08-04T11:36:58;35.80;33.10
18177;DHT22;9213;50.858;3.964;2022-08-04T11:39:28;36.00;33.20
18177;DHT22;9213;50.858;3.964;2022-08-04T11:41:59;36.10;32.30
18177;DHT22;9213;50.858;3.964;2022-08-04T11:44:31;36.10;32.00
18177;DHT22;9213;50.858;3.964;2022-08-04T11:47:03;36.00;32.80
18177;DHT22;9213;50.858;3.964;2022-08-04T11:49:36;35.90;32.10
18177;DHT22;9213;50.858;3.964;2022-08-04T11:52:06;35.90;32.20
18177;DHT22;9213;50.858;3.964;2022-08-04T11:54:35;36.00;32.40
18177;DHT22;9213;50.858;3.964;2022-08-04T11:57:04;36.20;31.70
18177;DHT22;9213;50.858;3.964;2022-08-04T11:59:34;36.20;31.40
18177;DHT22;9213;50.858;3.964;2022-08-04T12:02:15;36.30;31.40
18177;DHT22;9213;50.858;3.964;2022-08-04T12:04:51;36.20;31.20
18177;DHT22;9213;50.858;3.964;2022-08-04T12:07:31;36.10;31.60
18177;DHT22;9213;50.858;3.964;2022-08-04T12:10:14;36.00;31.90
18177;DHT22;9213;50.858;3.964;2022-08-04T12:12:53;36.00;32.00
18177;DHT22;9213;50.858;3.964;2022-08-04T12:15:27;36.00;32.10
18177;DHT22;9213;50.858;3.964;2022-08-04T12:18:13;36.10;31.60
18177;DHT22;9213;50.858;3.964;2022-08-04T12:20:48;36.20;31.30
18177;DHT22;9213;50.858;3.964;2022-08-04T12:23:22;36.30;31.10
18177;DHT22;9213;50.858;3.964;2022-08-04T12:25:52;36.30;31.70
18177;DHT22;9213;50.858;3.964;2022-08-04T12:28:25;36.30;30.80
18177;DHT22;9213;50.858;3.964;2022-08-04T12:31:01;36.30;30.60
18177;DHT22;9213;50.858;3.964;2022-08-04T12:33:33;36.30;31.20
18177;DHT22;9213;50.858;3.964;2022-08-04T12:36:09;36.30;31.00
18177;DHT22;9213;50.858;3.964;2022-08-04T12:38:46;36.30;31.10
18177;DHT22;9213;50.858;3.964;2022-08-04T12:41:17;36.30;30.90
18177;DHT22;9213;50.858;3.964;2022-08-04T12:43:47;36.20;30.90
18177;DHT22;9213;50.858;3.964;2022-08-04T12:46:21;36.30;31.10
18177;DHT22;9213;50.858;3.964;2022-08-04T12:48:49;36.50;31.30
18177;DHT22;9213;50.858;3.964;2022-08-04T12:51:17;36.70;30.30
18177;DHT22;9213;50.858;3.964;2022-08-04T12:53:46;36.80;30.50
18177;DHT22;9213;50.858;3.964;2022-08-04T12:56:15;36.90;30.10
18177;DHT22;9213;50.858;3.964;2022-08-04T12:58:45;37.10;30.40
18177;DHT22;9213;50.858;3.964;2022-08-04T13:01:16;37.30;30.30
18177;DHT22;9213;50.858;3.964;2022-08-04T13:06:33;37.90;28.70
18177;DHT22;9213;50.858;3.964;2022-08-04T13:09:05;37.90;27.90
18177;DHT22;9213;50.858;3.964;2022-08-04T13:11:36;38.00;28.20
18177;DHT22;9213;50.858;3.964;2022-08-04T13:14:05;38.00;28.20
18177;DHT22;9213;50.858;3.964;2022-08-04T13:16:33;38.00;28.60
18177;DHT22;9213;50.858;3.964;2022-08-04T13:19:03;38.10;28.00
18177;DHT22;9213;50.858;3.964;2022-08-04T13:21:32;38.20;27.70
18177;DHT22;9213;50.858;3.964;2022-08-04T13:24:03;38.30;27.80
18177;DHT22;9213;50.858;3.964;2022-08-04T13:26:33;38.40;27.30
18177;DHT22;9213;50.858;3.964;2022-08-04T13:29:04;38.60;27.20
18177;DHT22;9213;50.858;3.964;2022-08-04T13:31:32;38.70;26.40
18177;DHT22;9213;50.858;3.964;2022-08-04T13:34:05;38.80;26.70
18177;DHT22;9213;50.858;3.964;2022-08-04T13:36:34;38.90;26.80
18177;DHT22;9213;50.858;3.964;2022-08-04T13:39:05;38.80;26.60
18177;DHT22;9213;50.858;3.964;2022-08-04T13:41:35;38.80;26.20
18177;DHT22;9213;50.858;3.964;2022-08-04T13:44:04;38.80;26.00
18177;DHT22;9213;50.858;3.964;2022-08-04T13:46:38;38.70;26.30
18177;DHT22;9213;50.858;3.964;2022-08-04T13:49:10;38.70;25.80
18177;DHT22;9213;50.858;3.964;2022-08-04T13:51:38;38.70;25.40
18177;DHT22;9213;50.858;3.964;2022-08-04T13:54:06;38.60;25.10
18177;DHT22;9213;50.858;3.964;2022-08-04T13:56:37;38.60;25.10
18177;DHT22;9213;50.858;3.964;2022-08-04T13:59:09;38.50;25.70
18177;DHT22;9213;50.858;3.964;2022-08-04T14:01:39;38.50;25.70
18177;DHT22;9213;50.858;3.964;2022-08-04T14:04:14;38.50;25.50
18177;DHT22;9213;50.858;3.964;2022-08-04T14:06:48;38.50;24.90
18177;DHT22;9213;50.858;3.964;2022-08-04T14:09:19;38.30;25.30
18177;DHT22;9213;50.858;3.964;2022-08-04T14:11:48;38.10;25.90
18177;DHT22;9213;50.858;3.964;2022-08-04T14:14:18;38.00;26.00
18177;DHT22;9213;50.858;3.964;2022-08-04T14:16:56;37.90;26.50
18177;DHT22;9213;50.858;3.964;2022-08-04T14:19:24;38.00;26.50
18177;DHT22;9213;50.858;3.964;2022-08-04T14:21:52;37.90;26.20
18177;DHT22;9213;50.858;3.964;2022-08-04T14:24:23;37.90;26.10
18177;DHT22;9213;50.858;3.964;2022-08-04T14:26:51;37.90;26.10
18177;DHT22;9213;50.858;3.964;2022-08-04T14:29:19;37.80;26.20
18177;DHT22;9213;50.858;3.964;2022-08-04T14:31:49;37.70;25.90
18177;DHT22;9213;50.858;3.964;2022-08-04T14:34:27;37.70;26.20
18177;DHT22;9213;50.858;3.964;2022-08-04T14:36:55;37.70;26.40
18177;DHT22;9213;50.858;3.964;2022-08-04T14:39:38;37.60;25.80
18177;DHT22;9213;50.858;3.964;2022-08-04T14:42:06;37.60;26.10
18177;DHT22;9213;50.858;3.964;2022-08-04T14:44:51;37.60;26.10
18177;DHT22;9213;50.858;3.964;2022-08-04T14:47:39;37.60;26.60
18177;DHT22;9213;50.858;3.964;2022-08-04T14:50:09;37.50;26.10
18177;DHT22;9213;50.858;3.964;2022-08-04T14:52:37;37.50;26.00
18177;DHT22;9213;50.858;3.964;2022-08-04T14:55:15;37.50;26.30
18177;DHT22;9213;50.858;3.964;2022-08-04T14:57:42;37.60;26.70
18177;DHT22;9213;50.858;3.964;2022-08-04T15:00:11;37.50;26.30
18177;DHT22;9213;50.858;3.964;2022-08-04T15:02:41;37.40;26.60
18177;DHT22;9213;50.858;3.964;2022-08-04T15:05:10;37.40;25.90
18177;DHT22;9213;50.858;3.964;2022-08-04T15:07:37;37.30;26.20
18177;DHT22;9213;50.858;3.964;2022-08-04T15:10:04;37.20;26.40
18177;DHT22;9213;50.858;3.964;2022-08-04T15:12:31;37.10;26.50
18177;DHT22;9213;50.858;3.964;2022-08-04T15:14:58;36.90;25.70
18177;DHT22;9213;50.858;3.964;2022-08-04T15:17:25;36.70;25.90
18177;DHT22;9213;50.858;3.964;2022-08-04T15:19:54;36.60;26.30
18177;DHT22;9213;50.858;3.964;2022-08-04T15:22:22;36.50;27.30
18177;DHT22;9213;50.858;3.964;2022-08-04T15:24:49;36.30;27.40
18177;DHT22;9213;50.858;3.964;2022-08-04T15:27:17;36.10;28.00
18177;DHT22;9213;50.858;3.964;2022-08-04T15:29:46;35.90;28.10
18177;DHT22;9213;50.858;3.964;2022-08-04T15:32:16;35.70;28.30
18177;DHT22;9213;50.858;3.964;2022-08-04T15:34:44;35.50;28.80
18177;DHT22;9213;50.858;3.964;2022-08-04T15:37:15;35.40;29.00
18177;DHT22;9213;50.858;3.964;2022-08-04T15:39:50;35.30;29.10
18177;DHT22;9213;50.858;3.964;2022-08-04T15:42:31;35.30;29.40
18177;DHT22;9213;50.858;3.964;2022-08-04T15:45:11;35.20;30.00
18177;DHT22;9213;50.858;3.964;2022-08-04T15:47:42;35.10;29.50
18177;DHT22;9213;50.858;3.964;2022-08-04T15:50:10;35.00;29.50
18177;DHT22;9213;50.858;3.964;2022-08-04T15:53:00;34.90;29.40
18177;DHT22;9213;50.858;3.964;2022-08-04T15:55:36;34.90;29.70
18177;DHT22;9213;50.858;3.964;2022-08-04T15:58:04;34.80;30.00
18177;DHT22;9213;50.858;3.964;2022-08-04T16:03:44;34.80;30.40
18177;DHT22;9213;50.858;3.964;2022-08-04T16:09:25;34.80;30.20
18177;DHT22;9213;50.858;3.964;2022-08-04T16:11:54;34.70;30.30
18177;DHT22;9213;50.858;3.964;2022-08-04T16:14:32;34.50;30.10
18177;DHT22;9213;50.858;3.964;2022-08-04T16:17:14;34.50;30.60
18177;DHT22;9213;50.858;3.964;2022-08-04T16:20:02;34.40;30.90
18177;DHT22;9213;50.858;3.964;2022-08-04T16:22:38;34.40;30.70
18177;DHT22;9213;50.858;3.964;2022-08-04T16:25:06;34.30;30.80
18177;DHT22;9213;50.858;3.964;2022-08-04T16:27:40;34.20;31.00
18177;DHT22;9213;50.858;3.964;2022-08-04T16:30:09;34.10;31.20
18177;DHT22;9213;50.858;3.964;2022-08-04T16:32:42;34.10;31.20
18177;DHT22;9213;50.858;3.964;2022-08-04T16:35:20;34.10;31.30
18177;DHT22;9213;50.858;3.964;2022-08-04T16:37:52;34.10;31.20
18177;DHT22;9213;50.858;3.964;2022-08-04T16:40:28;34.00;31.30
18177;DHT22;9213;50.858;3.964;2022-08-04T16:43:07;34.00;31.30
18177;DHT22;9213;50.858;3.964;2022-08-04T16:45:48;34.00;31.40
18177;DHT22;9213;50.858;3.964;2022-08-04T16:48:17;33.90;31.10
18177;DHT22;9213;50.858;3.964;2022-08-04T16:50:50;33.80;31.40
18177;DHT22;9213;50.858;3.964;2022-08-04T16:53:18;33.70;31.30
18177;DHT22;9213;50.858;3.964;2022-08-04T16:55:47;33.50;31.30
18177;DHT22;9213;50.858;3.964;2022-08-04T16:58:16;33.40;31.70
18177;DHT22;9213;50.858;3.964;2022-08-04T17:00:43;33.30;32.20
18177;DHT22;9213;50.858;3.964;2022-08-04T17:03:11;33.20;31.60
18177;DHT22;9213;50.858;3.964;2022-08-04T17:05:38;33.10;31.90
18177;DHT22;9213;50.858;3.964;2022-08-04T17:08:06;33.00;31.90
18177;DHT22;9213;50.858;3.964;2022-08-04T17:10:36;32.90;31.80
18177;DHT22;9213;50.858;3.964;2022-08-04T17:13:20;32.80;32.10
18177;DHT22;9213;50.858;3.964;2022-08-04T17:15:47;32.80;31.90
18177;DHT22;9213;50.858;3.964;2022-08-04T17:18:16;32.60;32.10
18177;DHT22;9213;50.858;3.964;2022-08-04T17:20:43;32.50;32.10
18177;DHT22;9213;50.858;3.964;2022-08-04T17:23:33;32.40;32.30
18177;DHT22;9213;50.858;3.964;2022-08-04T17:26:04;32.40;32.40